Saint-Jerome, Canada
Current Conditions -  °F | °C
As of 11:00 PM on Sunday 21 Dec 2014 (Local Time) from CYMX Reporting Station
Light Snow Light Snow  
Wind Chill: -14°   Ceiling: 1800
Heat Index: -9°   Visibility: 15mi
Dew Point: -11°   Wind: 7mph
Humidity: 86%   Direction: 50°NE
Pressure: 30.41"   Gusts: NA
Location:  45.77°N, 74°W
Report Text: CYMX 220400Z 05006KT 15SM -SN FEW009 OVC018 M09/M11 A3041 RMK SF1SC7 SLP304
Loading
Personal Weather Stations






























Interactive Weather Map New forecast layout! Learn more

10-Day Weather Forecast

Advertisements
Track Severe Weather on mobile